createdAt,value
2018-09-12T00:00:07.830Z,21.3
2018-09-12T00:05:03.108Z,21.3
2018-09-12T00:10:13.201Z,21
2018-09-12T00:15:02.346Z,21
2018-09-12T00:20:02.739Z,20.8
2018-09-12T00:25:03.149Z,20.7
2018-09-12T00:30:02.459Z,20.6
2018-09-12T00:35:05.388Z,20.3
2018-09-12T00:40:03.230Z,20.3
2018-09-12T00:45:02.545Z,20.2
2018-09-12T00:50:02.879Z,20.2
2018-09-12T00:55:05.832Z,20
2018-09-12T01:00:05.627Z,20
2018-09-12T01:05:07.673Z,19.9
2018-09-12T01:10:02.478Z,19.9
2018-09-12T01:15:15.513Z,19.9
2018-09-12T01:20:02.880Z,19.9
2018-09-12T01:25:03.273Z,19.9
2018-09-12T01:30:10.175Z,19.7
2018-09-12T01:35:08.013Z,19.7
2018-09-12T01:40:02.868Z,19.7
2018-09-12T01:45:13.252Z,19.6
2018-09-12T01:50:02.573Z,19.6
2018-09-12T01:55:02.837Z,19.6
2018-09-12T02:00:03.128Z,19.5
2018-09-12T02:05:04.977Z,19.5
2018-09-12T02:10:05.258Z,19.4
2018-09-12T02:15:02.988Z,19.4
2018-09-12T02:20:04.974Z,19.3
2018-09-12T02:25:05.256Z,19.3
2018-09-12T02:30:10.189Z,19.3
2018-09-12T02:35:05.428Z,19.3
2018-09-12T02:40:08.316Z,19.2
2018-09-12T02:45:05.027Z,19.1
2018-09-12T02:50:08.425Z,19.1
2018-09-12T02:55:05.214Z,19
2018-09-12T03:00:05.134Z,19
2018-09-12T03:05:05.425Z,18.9
2018-09-12T03:10:05.858Z,18.9
2018-09-12T03:15:02.490Z,18.9
2018-09-12T03:20:02.961Z,18.8
2018-09-12T03:25:08.393Z,18.7
2018-09-12T03:30:07.836Z,18.7
2018-09-12T03:35:03.108Z,18.7
2018-09-12T03:40:05.456Z,18.6
2018-09-12T03:45:05.728Z,18.5
2018-09-12T03:50:07.645Z,18.3
2018-09-12T03:55:02.907Z,18.3
2018-09-12T04:00:03.239Z,18.3
2018-09-12T04:05:05.098Z,18.1
2018-09-12T04:10:07.925Z,18.1
2018-09-12T04:15:05.736Z,18
2018-09-12T04:20:08.134Z,18
2018-09-12T04:25:17.771Z,17.9
2018-09-12T04:30:03.079Z,17.9
2018-09-12T04:35:07.528Z,17.9
2018-09-12T04:40:05.811Z,17.9
2018-09-12T04:45:07.626Z,17.9
2018-09-12T04:50:03.051Z,17.9
2018-09-12T04:55:02.391Z,17.9
2018-09-12T05:00:07.786Z,17.8
2018-09-12T05:05:10.592Z,17.7
2018-09-12T05:10:03.413Z,17.7
2018-09-12T05:15:03.049Z,17.7
2018-09-12T05:20:12.646Z,17.7
2018-09-12T05:25:07.746Z,17.7
2018-09-12T05:30:13.113Z,17.7
2018-09-12T05:35:05.845Z,17.9
2018-09-12T05:40:05.327Z,17.9
2018-09-12T05:45:10.724Z,18
2018-09-12T05:50:08.183Z,18.1
2018-09-12T05:55:10.103Z,18.3
2018-09-12T06:00:08.387Z,18.4
2018-09-12T06:05:02.687Z,18.4
2018-09-12T06:10:02.608Z,18.6
2018-09-12T06:15:05.522Z,18.8
2018-09-12T06:20:02.950Z,18.9
2018-09-12T06:25:10.822Z,19.1
2018-09-12T06:30:05.651Z,19.3
2018-09-12T06:35:02.403Z,19.2
2018-09-12T06:40:10.924Z,19.6
2018-09-12T06:45:05.135Z,19.9
2018-09-12T06:50:07.527Z,20.2
2018-09-12T06:55:07.805Z,20.5
2018-09-12T07:00:05.661Z,20.6
2018-09-12T07:05:02.405Z,20.6
2018-09-12T07:10:08.271Z,20.9
2018-09-12T07:15:05.451Z,21.1
2018-09-12T07:20:07.847Z,21.2
2018-09-12T07:25:03.348Z,21.2
2018-09-12T07:30:02.628Z,21.3
2018-09-12T07:35:20.716Z,21.6
2018-09-12T07:45:05.148Z,22
2018-09-12T07:50:02.505Z,21.9
2018-09-12T07:55:07.910Z,22.2
2018-09-12T08:00:05.221Z,22.4
2018-09-12T08:05:03.423Z,22.3
2018-09-12T08:10:02.366Z,22.4
2018-09-12T08:15:23.487Z,22.5
2018-09-12T08:20:05.408Z,22.6
2018-09-12T08:25:03.226Z,22.6
2018-09-12T08:30:20.650Z,22.7
2018-09-12T08:35:02.410Z,22.6
2018-09-12T08:40:05.854Z,22.9
2018-09-12T08:45:02.970Z,22.9
2018-09-12T08:50:08.368Z,23.3
2018-09-12T08:55:02.673Z,23.3
2018-09-12T09:00:05.472Z,23.5
2018-09-12T09:05:05.041Z,23.5
2018-09-12T09:10:02.903Z,23.5
2018-09-12T09:15:05.706Z,23.9
2018-09-12T09:20:10.705Z,24
2018-09-12T09:25:02.428Z,24
2018-09-12T09:30:05.287Z,24.2
2018-09-12T09:35:13.264Z,24.1
2018-09-12T09:40:05.749Z,24.2
2018-09-12T09:45:07.752Z,24.3
2018-09-12T09:50:03.342Z,24.3
2018-09-12T09:55:02.766Z,24.4
2018-09-12T10:00:05.658Z,24.6
2018-09-12T10:05:02.804Z,24.6
2018-09-12T10:10:10.171Z,24.8
2018-09-12T10:15:05.567Z,25
2018-09-12T10:20:08.009Z,25
2018-09-12T10:25:02.430Z,25
2018-09-12T10:30:10.358Z,25.1
2018-09-12T10:35:05.647Z,25
2018-09-12T10:40:07.541Z,24.9
2018-09-12T10:45:05.338Z,25
2018-09-12T10:50:05.194Z,25.1
2018-09-12T10:55:03.064Z,25.1
2018-09-12T11:00:02.360Z,25
2018-09-12T11:05:07.926Z,25.4
2018-09-12T11:10:07.806Z,25.6
2018-09-12T11:15:03.099Z,25.6
2018-09-12T11:20:10.125Z,25.8
2018-09-12T11:25:13.091Z,25.9
2018-09-12T11:30:09.968Z,25.8
2018-09-12T11:35:02.949Z,25.9
2018-09-12T11:40:05.306Z,25.8
2018-09-12T11:45:10.781Z,25.9
2018-09-12T11:50:05.662Z,26.1
2018-09-12T11:55:02.427Z,26.1
2018-09-12T12:00:05.321Z,26
2018-09-12T12:05:05.035Z,26.1
2018-09-12T12:10:05.336Z,26.1
2018-09-12T12:15:05.730Z,26.2
2018-09-12T12:20:08.186Z,26.3
2018-09-12T12:25:05.039Z,26.6
2018-09-12T12:30:04.955Z,26.8
2018-09-12T12:35:07.856Z,27
2018-09-12T12:40:02.750Z,27
2018-09-12T12:45:05.767Z,28.5
2018-09-12T12:50:08.246Z,29.6
2018-09-12T12:55:12.638Z,30.3
2018-09-12T13:00:05.568Z,30.2
2018-09-12T13:05:02.377Z,30.1
2018-09-12T13:10:10.847Z,29.4
2018-09-12T13:15:02.650Z,29.4
2018-09-12T13:20:13.309Z,28.7
2018-09-12T13:25:05.167Z,29.4
2018-09-12T13:30:05.098Z,30.2
2018-09-12T13:35:20.863Z,30.9
2018-09-12T13:40:05.564Z,30.8
2018-09-12T13:45:05.066Z,31.5
2018-09-12T13:50:02.844Z,31.5
2018-09-12T13:55:05.804Z,31.2
2018-09-12T14:00:03.168Z,31.2
2018-09-12T14:05:07.752Z,32.2
2018-09-12T14:10:02.575Z,32.2
2018-09-12T14:15:02.997Z,31.6
2018-09-12T14:20:10.099Z,32
2018-09-12T14:25:02.946Z,32
2018-09-12T14:30:04.941Z,32.7
2018-09-12T14:35:03.026Z,32.7
2018-09-12T14:40:03.012Z,30.8
2018-09-12T14:45:05.038Z,29
2018-09-12T14:50:02.556Z,29
2018-09-12T14:55:15.777Z,27.8
2018-09-12T15:00:03.099Z,27.8
2018-09-12T15:05:10.102Z,26.7
2018-09-12T15:10:05.544Z,26.5
2018-09-12T15:15:07.454Z,26.4
2018-09-12T15:20:05.397Z,26.1
2018-09-12T15:25:16.056Z,25.7
2018-09-12T15:30:07.434Z,25.4
2018-09-12T15:35:02.960Z,25.4
2018-09-12T15:40:08.002Z,25.1
2018-09-12T15:45:18.272Z,24.7
2018-09-12T15:50:25.393Z,24.5
2018-09-12T15:55:02.696Z,24.5
2018-09-12T16:00:02.666Z,24.3
2018-09-12T16:10:07.591Z,23.3
2018-09-12T16:15:02.868Z,23.3
2018-09-12T16:20:02.359Z,22.9
2018-09-12T16:25:27.935Z,22.3
2018-09-12T16:30:03.311Z,22.3
2018-09-12T16:35:02.661Z,22
2018-09-12T16:40:05.001Z,21.1
2018-09-12T16:45:05.413Z,21.5
2018-09-12T16:50:02.718Z,21.4
2018-09-12T16:55:03.020Z,21.2
2018-09-12T17:00:27.982Z,20.6
2018-09-12T17:05:05.849Z,20.4
2018-09-12T17:10:05.147Z,20.4
2018-09-12T17:15:05.827Z,20.3
2018-09-12T17:20:13.372Z,20.2
2018-09-12T17:25:02.808Z,20.2
2018-09-12T17:30:05.638Z,20
2018-09-12T17:35:05.212Z,20
2018-09-12T17:40:02.961Z,19.9
2018-09-12T17:45:05.820Z,19.8
2018-09-12T17:50:03.114Z,19.8
2018-09-12T17:55:02.430Z,19.7
2018-09-12T18:00:02.742Z,19.6
2018-09-12T18:05:05.634Z,19.4
2018-09-12T18:10:04.955Z,12.9
2018-09-12T18:15:02.737Z,19.3
2018-09-12T18:20:10.765Z,19
2018-09-12T18:25:15.300Z,18.9
2018-09-12T18:30:05.146Z,18.9
2018-09-12T18:35:03.017Z,18.9
2018-09-12T18:40:07.776Z,18.7
2018-09-12T18:45:03.071Z,18.7
2018-09-12T18:50:02.363Z,18.6
2018-09-12T18:55:05.206Z,18.5
2018-09-12T19:00:05.007Z,18.4
2018-09-12T19:05:05.457Z,18.4
2018-09-12T19:10:05.961Z,18.3
2018-09-12T19:15:05.146Z,18.4
2018-09-12T19:20:10.412Z,18.4
2018-09-12T19:25:08.148Z,18.5
2018-09-12T19:30:02.520Z,18.4
2018-09-12T19:35:02.924Z,18.4
2018-09-12T19:40:08.172Z,18.3
2018-09-12T19:45:08.396Z,18.3
2018-09-12T19:50:22.989Z,18.3
2018-09-12T19:55:03.270Z,18.3
2018-09-12T20:00:02.684Z,18.3
2018-09-12T20:05:13.353Z,18.3
2018-09-12T20:10:05.622Z,18.3
2018-09-12T20:15:07.715Z,18.2
2018-09-12T20:20:03.211Z,18.2
2018-09-12T20:25:09.997Z,18.1
2018-09-12T20:30:05.012Z,18
2018-09-12T20:35:10.348Z,18
2018-09-12T20:40:05.679Z,18
2018-09-12T20:45:02.461Z,18
2018-09-12T20:50:12.914Z,17.9
2018-09-12T20:55:05.555Z,17.8
2018-09-12T21:00:05.437Z,17.7
2018-09-12T21:05:03.293Z,17.8
2018-09-12T21:10:03.062Z,17.6
2018-09-12T21:15:10.022Z,17.5
2018-09-12T21:20:02.593Z,17.5
2018-09-12T21:25:20.644Z,17.4
2018-09-12T21:30:07.975Z,17.4
2018-09-12T21:35:18.491Z,17.4
2018-09-12T21:40:05.816Z,17.4
2018-09-12T21:45:07.695Z,17.4
2018-09-12T21:50:03.045Z,17.4
2018-09-12T21:55:04.946Z,17.3
2018-09-12T22:00:08.326Z,17.3
2018-09-12T22:05:02.574Z,4.5
2018-09-12T22:10:15.979Z,17.3
2018-09-12T22:15:02.649Z,17.3
2018-09-12T22:20:10.645Z,17.2
2018-09-12T22:25:04.918Z,17.2
2018-09-12T22:30:03.239Z,17.2
2018-09-12T22:35:05.175Z,17.2
2018-09-12T22:40:05.450Z,17.2
2018-09-12T22:45:08.274Z,17.2
2018-09-12T22:50:02.648Z,17.2
2018-09-12T22:55:05.552Z,17.2
2018-09-12T23:00:07.881Z,17.2
2018-09-12T23:05:05.738Z,17.2
2018-09-12T23:10:07.617Z,17.2
2018-09-12T23:15:05.460Z,17.2
2018-09-12T23:20:02.890Z,17.2
2018-09-12T23:25:08.223Z,17.1
2018-09-12T23:30:02.459Z,17.1
2018-09-12T23:35:28.093Z,17.1
2018-09-12T23:40:07.951Z,17.2
2018-09-12T23:45:03.158Z,17.2
2018-09-12T23:50:12.613Z,17.2
2018-09-12T23:55:02.928Z,17.1
